Time;durP1;ratioP1;P1;durP2;ratioP2;P2;SDS_P1;SDS_P2;PMS_P1;PMS_P2;Temp;Humidity;BMP_temperature;BMP_pressure;BME280_temperature;BME280_humidity;BME280_pressure;Samples;Min_cycle;Max_cycle;Signal;HPM_P1;HPM_P2
2021/07/09 00:02:21;;;;;;;10.88;9.90;;;;;;;;;;5070550;28;20774;-85
2021/07/09 00:04:47;;;;;;;12.82;10.57;;;;;;;;;;5053038;28;20728;-84
2021/07/09 00:07:13;;;;;;;10.63;9.27;;;;;;;;;;5052036;28;20394;-85
2021/07/09 00:09:39;;;;;;;10.55;9.38;;;;;;;;;;5051362;28;20366;-87
2021/07/09 00:12:05;;;;;;;12.50;9.30;;;;;;;;;;5069856;28;20874;-84
2021/07/09 00:14:34;;;;;;;10.13;9.20;;;;;;;;;;5051943;28;20393;-84
2021/07/09 00:17:00;;;;;;;10.70;9.65;;;;;;;;;;5070315;28;20427;-86
2021/07/09 00:19:26;;;;;;;12.10;8.68;;;;;;;;;;5051785;28;20778;-86
2021/07/09 00:21:52;;;;;;;10.32;8.90;;;;;;;;;;5069440;28;20404;-85
2021/07/09 00:24:19;;;;;;;10.75;8.63;;;;;;;;;;5054178;28;20378;-84
2021/07/09 00:26:45;;;;;;;12.65;9.50;;;;;;;;;;5056504;28;20374;-86
2021/07/09 00:29:11;;;;;;;14.10;9.57;;;;;;;;;;5071259;28;20406;-87
2021/07/09 00:31:37;;;;;;;13.25;9.57;;;;;;;;;;5054108;28;20444;-86
2021/07/09 00:34:05;;;;;;;11.57;9.30;;;;;;;;;;5056605;28;20868;-86
2021/07/09 00:36:32;;;;;;;9.75;8.88;;;;;;;;;;5052986;28;20433;-85
2021/07/09 00:38:58;;;;;;;12.45;9.45;;;;;;;;;;5052080;28;20460;-85
2021/07/09 00:41:23;;;;;;;9.73;8.73;;;;;;;;;;5071424;28;20863;-85
2021/07/09 00:43:50;;;;;;;8.02;7.32;;;;;;;;;;5069093;28;20400;-86
2021/07/09 00:46:16;;;;;;;9.57;7.65;;;;;;;;;;5053517;28;20425;-87
2021/07/09 00:48:41;;;;;;;9.02;8.05;;;;;;;;;;5072366;28;20420;-86
2021/07/09 00:51:10;;;;;;;9.10;7.60;;;;;;;;;;5052010;28;20772;-87
2021/07/09 00:53:36;;;;;;;10.93;7.95;;;;;;;;;;5071800;28;20916;-86
2021/07/09 00:56:02;;;;;;;11.10;7.47;;;;;;;;;;5071228;28;20409;-87
2021/07/09 00:58:29;;;;;;;8.00;7.20;;;;;;;;;;5051879;28;20358;-84
2021/07/09 01:00:55;;;;;;;13.23;6.65;;;;;;;;;;5069285;28;20374;-84
2021/07/09 01:03:21;;;;;;;9.43;6.85;;;;;;;;;;5051598;28;20447;-84
2021/07/09 01:05:47;;;;;;;7.47;6.78;;;;;;;;;;5051537;28;20381;-84
2021/07/09 01:08:14;;;;;;;9.55;6.40;;;;;;;;;;5069369;28;20390;-84
2021/07/09 01:10:41;;;;;;;8.50;5.80;;;;;;;;;;5051761;28;20383;-84
2021/07/09 01:13:07;;;;;;;7.90;5.82;;;;;;;;;;5051604;28;20389;-84
2021/07/09 01:15:33;;;;;;;8.10;6.00;;;;;;;;;;5069317;28;20366;-83
2021/07/09 01:17:59;;;;;;;7.72;5.90;;;;;;;;;;5052294;28;20859;-84
2021/07/09 01:20:25;;;;;;;8.23;6.28;;;;;;;;;;5069718;28;20465;-83
2021/07/09 01:22:51;;;;;;;7.68;6.10;;;;;;;;;;5069272;28;20735;-83
2021/07/09 01:25:21;;;;;;;8.05;5.72;;;;;;;;;;5050985;28;20424;-84
2021/07/09 01:27:50;;;;;;;7.90;5.82;;;;;;;;;;5070226;28;20524;-84
2021/07/09 01:30:20;;;;;;;9.45;6.00;;;;;;;;;;5052569;28;20386;-85
2021/07/09 01:32:47;;;;;;;9.05;5.95;;;;;;;;;;5050849;28;20370;-85
2021/07/09 01:35:13;;;;;;;7.40;6.10;;;;;;;;;;5069218;28;20374;-84
2021/07/09 01:37:39;;;;;;;8.82;5.85;;;;;;;;;;5051061;28;20930;-84
2021/07/09 01:40:10;;;;;;;7.70;6.00;;;;;;;;;;5053554;28;20394;-83
2021/07/09 01:42:37;;;;;;;11.75;6.03;;;;;;;;;;5051966;28;20791;-85
2021/07/09 01:45:04;;;;;;;7.65;5.75;;;;;;;;;;5052280;28;20431;-85
2021/07/09 01:47:30;;;;;;;10.02;6.38;;;;;;;;;;5052881;28;20370;-86
2021/07/09 01:49:57;;;;;;;9.47;6.47;;;;;;;;;;5052974;28;20689;-86
2021/07/09 01:52:23;;;;;;;8.65;6.13;;;;;;;;;;5051654;28;20474;-84
2021/07/09 01:54:50;;;;;;;9.23;6.80;;;;;;;;;;5052251;28;20367;-84
2021/07/09 01:57:16;;;;;;;7.38;6.03;;;;;;;;;;5052616;28;20393;-85
2021/07/09 01:59:42;;;;;;;10.10;6.03;;;;;;;;;;5050261;28;20377;-84
2021/07/09 02:02:09;;;;;;;9.63;6.40;;;;;;;;;;5068730;28;20366;-85
2021/07/09 02:04:43;;;;;;;10.63;6.63;;;;;;;;;;5068515;28;20368;-84
2021/07/09 02:07:09;;;;;;;11.40;6.72;;;;;;;;;;5068168;28;20378;-84
2021/07/09 02:09:35;;;;;;;7.03;6.30;;;;;;;;;;5050349;28;20997;-84
2021/07/09 02:12:01;;;;;;;7.55;5.95;;;;;;;;;;5068348;28;20366;-84
2021/07/09 02:14:27;;;;;;;8.40;5.78;;;;;;;;;;5050055;28;20382;-83
2021/07/09 02:16:53;;;;;;;5.78;5.38;;;;;;;;;;5050647;28;20379;-83
2021/07/09 02:19:19;;;;;;;6.95;6.00;;;;;;;;;;5068468;28;20799;-84
2021/07/09 02:21:48;;;;;;;7.70;6.70;;;;;;;;;;5068747;28;20465;-83
2021/07/09 02:24:15;;;;;;;7.45;6.22;;;;;;;;;;5050373;28;20436;-84
2021/07/09 02:26:41;;;;;;;11.32;7.63;;;;;;;;;;5050330;28;20438;-85
2021/07/09 02:29:07;;;;;;;9.17;6.77;;;;;;;;;;5050013;28;20398;-84
2021/07/09 02:31:34;;;;;;;8.27;6.88;;;;;;;;;;5051074;28;21010;-84
2021/07/09 02:34:00;;;;;;;12.00;7.43;;;;;;;;;;5053652;28;20929;-83
2021/07/09 02:36:26;;;;;;;10.47;7.30;;;;;;;;;;5053894;28;20469;-86
2021/07/09 02:38:52;;;;;;;12.70;8.47;;;;;;;;;;5072763;28;20374;-85
2021/07/09 02:41:18;;;;;;;10.25;9.25;;;;;;;;;;5055811;28;20366;-85
2021/07/09 02:43:44;;;;;;;11.25;10.02;;;;;;;;;;5055206;28;20906;-86
2021/07/09 02:46:10;;;;;;;12.38;8.68;;;;;;;;;;5054279;28;20465;-84
2021/07/09 02:48:36;;;;;;;10.57;9.17;;;;;;;;;;5071303;28;20398;-86
2021/07/09 02:51:02;;;;;;;12.43;9.40;;;;;;;;;;5072917;28;20724;-85
2021/07/09 02:53:28;;;;;;;12.98;8.90;;;;;;;;;;5072356;28;20864;-83
2021/07/09 02:55:55;;;;;;;9.43;8.43;;;;;;;;;;5054837;28;20370;-86
2021/07/09 02:58:21;;;;;;;10.30;8.50;;;;;;;;;;5056471;28;21372;-85
2021/07/09 03:00:47;;;;;;;10.55;9.35;;;;;;;;;;5074674;28;20402;-84
2021/07/09 03:03:13;;;;;;;9.98;8.93;;;;;;;;;;5073740;28;20709;-85
2021/07/09 03:05:39;;;;;;;9.73;8.83;;;;;;;;;;5053607;28;20373;-84
2021/07/09 03:08:05;;;;;;;10.97;8.97;;;;;;;;;;5075340;28;20489;-84
2021/07/09 03:10:31;;;;;;;9.30;7.83;;;;;;;;;;5055541;28;20374;-85
2021/07/09 03:12:57;;;;;;;10.52;7.90;;;;;;;;;;5056291;28;20435;-85
2021/07/09 03:15:23;;;;;;;9.48;8.50;;;;;;;;;;5056462;28;20421;-86
2021/07/09 03:17:49;;;;;;;10.65;7.82;;;;;;;;;;5073141;28;20398;-85
2021/07/09 03:20:15;;;;;;;10.95;8.15;;;;;;;;;;5072927;28;20735;-87
2021/07/09 03:22:41;;;;;;;11.20;8.40;;;;;;;;;;5054759;28;20386;-86
2021/07/09 03:25:12;;;;;;;12.00;8.80;;;;;;;;;;5073457;28;20382;-87
2021/07/09 03:27:38;;;;;;;9.77;8.77;;;;;;;;;;5054497;28;20401;-88
2021/07/09 03:30:05;;;;;;;11.05;9.00;;;;;;;;;;5055157;28;21405;-86
2021/07/09 03:32:31;;;;;;;10.43;9.43;;;;;;;;;;5054914;28;20740;-88
2021/07/09 03:34:57;;;;;;;9.80;8.88;;;;;;;;;;5055100;28;20436;-85
2021/07/09 03:37:23;;;;;;;10.10;9.07;;;;;;;;;;5072272;28;20882;-85
2021/07/09 03:39:49;;;;;;;15.15;8.93;;;;;;;;;;5054683;28;20414;-85
2021/07/09 03:42:15;;;;;;;10.40;8.63;;;;;;;;;;5054362;28;20384;-85
2021/07/09 03:44:41;;;;;;;11.35;8.45;;;;;;;;;;5053888;28;20362;-84
2021/07/09 03:47:07;;;;;;;9.50;8.52;;;;;;;;;;5055480;28;20985;-88
2021/07/09 03:49:33;;;;;;;9.93;8.23;;;;;;;;;;5053684;28;20394;-85
2021/07/09 03:51:59;;;;;;;11.60;8.07;;;;;;;;;;5072550;28;20381;-85
2021/07/09 03:54:25;;;;;;;10.40;8.07;;;;;;;;;;5054600;28;20378;-85
2021/07/09 03:56:51;;;;;;;9.73;8.13;;;;;;;;;;5054586;28;20894;-85
2021/07/09 03:59:17;;;;;;;11.47;8.00;;;;;;;;;;5054156;28;20374;-85
2021/07/09 04:01:43;;;;;;;15.10;8.88;;;;;;;;;;5055333;28;20384;-83
2021/07/09 04:04:09;;;;;;;9.98;8.32;;;;;;;;;;5053555;28;20898;-85
2021/07/09 04:06:36;;;;;;;9.70;8.60;;;;;;;;;;5054122;28;20468;-85
2021/07/09 04:09:03;;;;;;;9.23;8.38;;;;;;;;;;5071762;28;20965;-84
2021/07/09 04:11:29;;;;;;;12.63;8.82;;;;;;;;;;5057413;28;20374;-86
2021/07/09 04:13:55;;;;;;;11.73;8.77;;;;;;;;;;5074156;28;20408;-83
2021/07/09 04:16:21;;;;;;;10.43;8.30;;;;;;;;;;5055826;28;20382;-87
2021/07/09 04:18:47;;;;;;;11.07;9.05;;;;;;;;;;5053508;28;20412;-83
2021/07/09 04:21:13;;;;;;;10.48;9.45;;;;;;;;;;5072755;28;20370;-85
2021/07/09 04:23:39;;;;;;;10.95;9.43;;;;;;;;;;5054883;28;20383;-86
2021/07/09 04:26:06;;;;;;;14.80;9.53;;;;;;;;;;5072509;28;20370;-88
2021/07/09 04:28:32;;;;;;;12.17;10.87;;;;;;;;;;5070287;28;20437;-81
2021/07/09 04:30:58;;;;;;;11.90;10.50;;;;;;;;;;5069898;28;20867;-84
2021/07/09 04:33:24;;;;;;;11.60;10.40;;;;;;;;;;5069434;28;20412;-84
2021/07/09 04:35:50;;;;;;;12.70;10.98;;;;;;;;;;5052761;28;20797;-85
2021/07/09 04:38:17;;;;;;;13.45;11.15;;;;;;;;;;5051421;28;20469;-87
2021/07/09 04:40:43;;;;;;;12.13;10.93;;;;;;;;;;5070091;28;20380;-87
2021/07/09 04:43:09;;;;;;;13.38;12.10;;;;;;;;;;5070208;28;20499;-85
2021/07/09 04:45:36;;;;;;;13.30;11.90;;;;;;;;;;5070182;28;20377;-89
2021/07/09 04:48:02;;;;;;;13.57;12.20;;;;;;;;;;5051777;28;20501;-87
2021/07/09 04:50:29;;;;;;;12.90;11.70;;;;;;;;;;5070769;28;20382;-87
2021/07/09 04:53:01;;;;;;;13.93;12.47;;;;;;;;;;5070037;28;20440;-87
2021/07/09 04:55:27;;;;;;;15.33;13.43;;;;;;;;;;5053662;28;20382;-87
2021/07/09 04:57:53;;;;;;;15.37;12.67;;;;;;;;;;5051956;28;20867;-87
2021/07/09 05:00:19;;;;;;;16.90;14.10;;;;;;;;;;5053177;28;20478;-88
2021/07/09 05:02:45;;;;;;;17.52;13.63;;;;;;;;;;5052691;28;20791;-87
2021/07/09 05:05:13;;;;;;;16.23;14.63;;;;;;;;;;5051800;28;20409;-87
2021/07/09 05:07:39;;;;;;;17.20;14.30;;;;;;;;;;5070842;28;20381;-86
2021/07/09 05:10:05;;;;;;;17.92;15.93;;;;;;;;;;5053164;28;20366;-88
2021/07/09 05:12:31;;;;;;;20.77;15.20;;;;;;;;;;5051901;28;20435;-82
2021/07/09 05:14:57;;;;;;;18.80;15.68;;;;;;;;;;5051985;28;20378;-87
2021/07/09 05:17:23;;;;;;;18.02;16.10;;;;;;;;;;5069890;28;20369;-86
2021/07/09 05:19:52;;;;;;;17.75;15.90;;;;;;;;;;5070405;28;20370;-81
2021/07/09 05:22:22;;;;;;;19.42;16.10;;;;;;;;;;5053428;28;20385;-86
2021/07/09 05:24:52;;;;;;;18.13;16.02;;;;;;;;;;5069910;28;20362;-86
2021/07/09 05:27:18;;;;;;;18.38;16.48;;;;;;;;;;5070110;28;20797;-87
2021/07/09 05:29:44;;;;;;;18.40;16.50;;;;;;;;;;5051775;28;20461;-84
2021/07/09 05:32:10;;;;;;;20.65;17.00;;;;;;;;;;5051331;28;20447;-88
2021/07/09 05:34:36;;;;;;;20.67;16.70;;;;;;;;;;5051298;28;20472;-84
2021/07/09 05:37:02;;;;;;;20.30;18.10;;;;;;;;;;5069983;28;20368;-87
2021/07/09 05:39:28;;;;;;;18.85;16.95;;;;;;;;;;5069881;28;20366;-83
2021/07/09 05:41:54;;;;;;;19.17;17.20;;;;;;;;;;5052101;28;20373;-87
2021/07/09 05:44:20;;;;;;;19.42;17.05;;;;;;;;;;5051011;28;20381;-83
2021/07/09 05:46:47;;;;;;;18.75;16.67;;;;;;;;;;5069612;28;20393;-85
2021/07/09 05:49:17;;;;;;;17.58;15.75;;;;;;;;;;5050800;28;20401;-84
2021/07/09 05:51:43;;;;;;;18.02;16.10;;;;;;;;;;5051761;28;20401;-83
2021/07/09 05:54:09;;;;;;;19.88;16.38;;;;;;;;;;5069288;28;20852;-84
2021/07/09 05:56:35;;;;;;;17.63;15.82;;;;;;;;;;5068597;28;20394;-84
2021/07/09 05:59:03;;;;;;;18.08;16.27;;;;;;;;;;5069212;28;20405;-84
2021/07/09 06:01:29;;;;;;;15.77;14.23;;;;;;;;;;5051692;28;20446;-83
2021/07/09 06:03:55;;;;;;;14.77;13.37;;;;;;;;;;5051425;28;20466;-88
2021/07/09 06:06:21;;;;;;;13.95;12.60;;;;;;;;;;5052176;28;20397;-84
2021/07/09 06:08:46;;;;;;;14.77;13.27;;;;;;;;;;5073149;28;20408;-84
2021/07/09 06:11:12;;;;;;;14.32;12.93;;;;;;;;;;5055096;28;20474;-87
2021/07/09 06:13:38;;;;;;;13.07;11.82;;;;;;;;;;5054945;28;20378;-85
2021/07/09 06:16:05;;;;;;;14.35;12.95;;;;;;;;;;5055041;28;20373;-84
2021/07/09 06:18:32;;;;;;;14.75;12.50;;;;;;;;;;5072929;28;20424;-90
2021/07/09 06:20:58;;;;;;;14.88;12.73;;;;;;;;;;5054643;28;20936;-83
2021/07/09 06:23:24;;;;;;;13.68;11.65;;;;;;;;;;5054901;28;20382;-87
2021/07/09 06:25:50;;;;;;;12.80;11.60;;;;;;;;;;5055108;28;20419;-83
2021/07/09 06:28:16;;;;;;;12.23;11.13;;;;;;;;;;5054335;28;20409;-87
2021/07/09 06:30:42;;;;;;;13.27;11.90;;;;;;;;;;5054672;28;20419;-84
2021/07/09 06:33:09;;;;;;;12.75;11.50;;;;;;;;;;5072481;28;20783;-88
2021/07/09 06:35:35;;;;;;;11.45;10.30;;;;;;;;;;5072236;28;20362;-86
2021/07/09 06:38:02;;;;;;;12.55;11.43;;;;;;;;;;5054609;28;20380;-88
2021/07/09 06:40:28;;;;;;;14.02;11.65;;;;;;;;;;5053745;28;20376;-85
2021/07/09 06:42:54;;;;;;;11.90;10.57;;;;;;;;;;5073431;28;20375;-86
2021/07/09 06:45:20;;;;;;;15.77;11.63;;;;;;;;;;5054638;28;20536;-86
2021/07/09 06:47:46;;;;;;;11.23;10.23;;;;;;;;;;5054769;28;20394;-83
2021/07/09 06:50:15;;;;;;;10.85;9.73;;;;;;;;;;5053992;28;20390;-86
2021/07/09 06:52:42;;;;;;;10.23;9.23;;;;;;;;;;5053502;28;20393;-86
2021/07/09 06:55:08;;;;;;;10.57;9.65;;;;;;;;;;5053951;28;20402;-84
2021/07/09 06:57:34;;;;;;;10.65;9.77;;;;;;;;;;5053514;28;20432;-83
2021/07/09 07:00:00;;;;;;;10.77;9.43;;;;;;;;;;5053890;28;20367;-84
2021/07/09 07:02:26;;;;;;;10.73;9.68;;;;;;;;;;5071868;28;20385;-84
2021/07/09 07:04:52;;;;;;;11.10;10.07;;;;;;;;;;5053650;28;20374;-88
2021/07/09 07:07:18;;;;;;;11.03;10.03;;;;;;;;;;5071492;28;20927;-83
2021/07/09 07:09:44;;;;;;;10.38;9.48;;;;;;;;;;5071424;28;20410;-83
2021/07/09 07:12:10;;;;;;;11.15;10.07;;;;;;;;;;5053726;28;20378;-86
2021/07/09 07:14:36;;;;;;;11.55;10.45;;;;;;;;;;5053086;28;20469;-86
2021/07/09 07:17:03;;;;;;;11.48;10.38;;;;;;;;;;5036393;28;20386;-88
2021/07/09 07:19:29;;;;;;;11.35;10.35;;;;;;;;;;5053024;28;20847;-86
2021/07/09 07:21:58;;;;;;;11.77;10.68;;;;;;;;;;5072244;28;20400;-89
2021/07/09 07:24:24;;;;;;;11.63;10.50;;;;;;;;;;5054857;28;20469;-87
2021/07/09 07:26:50;;;;;;;10.47;9.47;;;;;;;;;;5052557;28;20465;-84
2021/07/09 07:29:17;;;;;;;11.85;10.68;;;;;;;;;;5052881;28;20414;-87
2021/07/09 07:31:44;;;;;;;12.20;11.00;;;;;;;;;;5071490;28;20495;-85
2021/07/09 07:34:10;;;;;;;13.60;12.38;;;;;;;;;;5053526;28;20931;-85
2021/07/09 07:36:36;;;;;;;14.05;12.70;;;;;;;;;;5071112;28;20376;-88
2021/07/09 07:39:02;;;;;;;13.13;11.82;;;;;;;;;;5071560;28;20366;-90
2021/07/09 07:41:28;;;;;;;13.25;11.93;;;;;;;;;;5065666;28;20378;-88
2021/07/09 07:43:54;;;;;;;13.53;12.20;;;;;;;;;;5064060;28;20370;-86
2021/07/09 07:46:20;;;;;;;14.13;12.63;;;;;;;;;;5081633;28;20728;-87
2021/07/09 07:48:46;;;;;;;14.05;12.55;;;;;;;;;;5055562;28;20447;-88
2021/07/09 07:51:12;;;;;;;14.50;13.20;;;;;;;;;;5053235;28;20370;-89
2021/07/09 07:53:38;;;;;;;13.45;12.15;;;;;;;;;;5053249;28;20413;-87
2021/07/09 07:56:05;;;;;;;11.18;10.07;;;;;;;;;;5052502;28;20385;-86
2021/07/09 07:58:31;;;;;;;11.60;10.60;;;;;;;;;;5052639;28;20382;-87
2021/07/09 08:00:58;;;;;;;12.17;11.03;;;;;;;;;;5070555;28;20366;-89
2021/07/09 08:03:24;;;;;;;10.10;9.10;;;;;;;;;;5052806;28;20408;-89
2021/07/09 08:05:50;;;;;;;9.60;8.90;;;;;;;;;;5052969;28;20891;-85
2021/07/09 08:08:16;;;;;;;7.85;7.15;;;;;;;;;;5052277;28;20776;-89
2021/07/09 08:10:42;;;;;;;8.55;7.78;;;;;;;;;;5070780;28;20350;-84
2021/07/09 08:13:08;;;;;;;7.60;7.00;;;;;;;;;;5052342;28;20385;-87
2021/07/09 08:15:34;;;;;;;8.32;7.63;;;;;;;;;;5069860;28;20839;-85
2021/07/09 08:18:00;;;;;;;8.65;7.90;;;;;;;;;;5071252;28;20381;-89
2021/07/09 08:20:28;;;;;;;8.48;7.78;;;;;;;;;;5052401;28;20459;-86
2021/07/09 08:22:54;;;;;;;9.77;9.00;;;;;;;;;;5052256;28;20381;-88
2021/07/09 08:25:20;;;;;;;9.00;8.20;;;;;;;;;;5052313;28;20381;-88
2021/07/09 08:27:46;;;;;;;10.45;9.45;;;;;;;;;;5069772;28;20367;-87
2021/07/09 08:30:12;;;;;;;10.30;9.45;;;;;;;;;;5051313;28;20902;-85
2021/07/09 08:32:40;;;;;;;10.25;9.35;;;;;;;;;;5051923;28;20381;-87
2021/07/09 08:35:09;;;;;;;7.63;7.00;;;;;;;;;;5052419;28;20372;-87
2021/07/09 08:37:35;;;;;;;8.57;7.80;;;;;;;;;;5070171;28;20362;-84
2021/07/09 08:40:01;;;;;;;8.77;7.80;;;;;;;;;;5051590;28;20382;-85
2021/07/09 08:42:27;;;;;;;10.02;8.35;;;;;;;;;;5069883;28;20472;-90
2021/07/09 08:44:53;;;;;;;9.40;8.55;;;;;;;;;;5052229;28;20374;-87
2021/07/09 08:47:19;;;;;;;9.35;8.60;;;;;;;;;;5051900;28;20883;-84
2021/07/09 08:49:49;;;;;;;9.73;8.77;;;;;;;;;;5069890;28;20398;-87
2021/07/09 08:52:15;;;;;;;9.25;8.52;;;;;;;;;;5069613;28;20402;-89
2021/07/09 08:54:41;;;;;;;11.35;10.32;;;;;;;;;;5051791;28;20400;-90
2021/07/09 08:57:08;;;;;;;10.50;9.50;;;;;;;;;;5051979;28;21254;-83
2021/07/09 08:59:34;;;;;;;9.85;8.98;;;;;;;;;;5069771;28;20389;-87
2021/07/09 09:02:06;;;;;;;9.05;8.27;;;;;;;;;;5052809;28;20876;-86
2021/07/09 09:04:33;;;;;;;9.63;8.60;;;;;;;;;;5051354;28;20382;-87
2021/07/09 09:07:01;;;;;;;7.63;6.93;;;;;;;;;;5070206;28;20389;-84
2021/07/09 09:09:27;;;;;;;7.03;6.40;;;;;;;;;;5051549;28;20445;-85
2021/07/09 09:12:08;;;;;;;4.97;4.53;;;;;;;;;;5069137;28;20406;-86
2021/07/09 09:14:39;;;;;;;4.53;4.13;;;;;;;;;;5069665;28;20732;-87
2021/07/09 09:17:24;;;;;;;7.03;4.88;;;;;;;;;;5051347;28;20458;-84
2021/07/09 09:20:13;;;;;;;4.30;3.80;;;;;;;;;;5051869;28;20366;-86
2021/07/09 09:22:48;;;;;;;6.70;3.80;;;;;;;;;;5051623;28;20863;-85
2021/07/09 09:25:19;;;;;;;3.10;2.65;;;;;;;;;;5051359;28;20946;-88
2021/07/09 09:27:56;;;;;;;5.10;2.75;;;;;;;;;;5069277;28;20362;-86
2021/07/09 09:30:22;;;;;;;5.72;2.85;;;;;;;;;;5051295;28;20382;-85
2021/07/09 09:32:49;;;;;;;3.83;2.72;;;;;;;;;;5069477;28;20366;-88
2021/07/09 09:35:25;;;;;;;3.40;2.60;;;;;;;;;;5051527;28;20378;-87
2021/07/09 09:37:52;;;;;;;5.63;2.83;;;;;;;;;;5069708;28;20372;-86
2021/07/09 09:40:19;;;;;;;4.95;2.70;;;;;;;;;;5051978;28;20371;-87
2021/07/09 09:42:45;;;;;;;3.10;2.30;;;;;;;;;;5056107;28;20377;-87
2021/07/09 09:45:11;;;;;;;3.25;2.00;;;;;;;;;;5055526;28;20366;-87
2021/07/09 09:47:37;;;;;;;3.20;1.70;;;;;;;;;;5055177;28;20393;-88
2021/07/09 09:50:05;;;;;;;3.20;2.60;;;;;;;;;;5074029;28;20377;-89
2021/07/09 09:52:34;;;;;;;4.05;1.70;;;;;;;;;;5055560;28;20385;-85
2021/07/09 09:55:01;;;;;;;2.45;1.30;;;;;;;;;;5056488;28;20381;-85
2021/07/09 09:57:27;;;;;;;2.75;1.50;;;;;;;;;;5056564;28;20374;-82
2021/07/09 09:59:53;;;;;;;2.97;1.52;;;;;;;;;;5055246;28;20374;-85
2021/07/09 10:02:23;;;;;;;2.47;1.30;;;;;;;;;;5055780;28;20942;-88
2021/07/09 10:04:49;;;;;;;3.67;2.00;;;;;;;;;;5073562;28;20430;-87
2021/07/09 10:07:15;;;;;;;2.42;1.58;;;;;;;;;;5072383;28;20855;-88
2021/07/09 10:09:46;;;;;;;4.85;2.00;;;;;;;;;;5054506;28;20444;-88
2021/07/09 10:12:16;;;;;;;3.15;1.98;;;;;;;;;;5054884;28;20377;-85
2021/07/09 10:14:44;;;;;;;2.57;2.10;;;;;;;;;;5074658;28;20362;-88
2021/07/09 10:17:10;;;;;;;2.55;2.10;;;;;;;;;;5057045;28;20382;-87
2021/07/09 10:19:37;;;;;;;5.30;2.25;;;;;;;;;;5074517;28;20511;-87
2021/07/09 10:22:04;;;;;;;4.25;2.30;;;;;;;;;;5073335;28;20369;-88
2021/07/09 10:24:31;;;;;;;3.87;2.30;;;;;;;;;;5056229;28;20493;-83
2021/07/09 10:26:57;;;;;;;7.03;2.60;;;;;;;;;;5075366;28;20409;-86
2021/07/09 10:29:24;;;;;;;5.45;2.80;;;;;;;;;;5056118;28;20401;-90
2021/07/09 10:31:51;;;;;;;4.80;2.80;;;;;;;;;;5056116;28;20378;-86
2021/07/09 10:34:35;;;;;;;5.22;3.17;;;;;;;;;;5054760;28;20370;-85
2021/07/09 10:37:04;;;;;;;9.47;7.80;;;;;;;;;;5054419;28;20867;-84
2021/07/09 10:39:31;;;;;;;4.70;3.17;;;;;;;;;;5054174;28;20401;-87
2021/07/09 10:42:11;;;;;;;4.45;3.25;;;;;;;;;;5072189;28;20731;-87
2021/07/09 10:44:38;;;;;;;5.20;3.30;;;;;;;;;;5055044;28;20378;-84
2021/07/09 10:47:16;;;;;;;4.93;3.42;;;;;;;;;;5054631;28;20472;-86
2021/07/09 10:49:55;;;;;;;5.22;4.30;;;;;;;;;;5055743;28;20401;-86
2021/07/09 10:52:39;;;;;;;5.68;4.90;;;;;;;;;;5053453;28;20856;-87
2021/07/09 10:55:24;;;;;;;7.45;4.35;;;;;;;;;;5073278;28;20370;-89
2021/07/09 10:58:09;;;;;;;6.72;4.90;;;;;;;;;;5055432;28;20370;-89
2021/07/09 11:00:44;;;;;;;6.13;5.18;;;;;;;;;;5072590;28;20508;-86
2021/07/09 11:03:10;;;;;;;7.57;5.30;;;;;;;;;;5054689;28;20419;-85
2021/07/09 11:05:42;;;;;;;8.18;6.82;;;;;;;;;;5055638;28;20371;-87
2021/07/09 11:08:27;;;;;;;6.57;5.97;;;;;;;;;;5053726;28;20426;-86
2021/07/09 11:10:57;;;;;;;36.20;32.95;;;;;;;;;;5072347;28;20366;-89
2021/07/09 11:16:19;;;;;;;6.53;5.80;;;;;;;;;;5074098;28;20489;-85
2021/07/09 11:18:46;;;;;;;6.20;5.50;;;;;;;;;;5054814;28;20414;-88
2021/07/09 11:21:12;;;;;;;14.10;12.90;;;;;;;;;;5055281;28;20370;-89
2021/07/09 11:23:38;;;;;;;6.85;6.18;;;;;;;;;;5056060;28;20781;-88
2021/07/09 11:26:07;;;;;;;15.07;13.63;;;;;;;;;;5054241;28;20413;-88
2021/07/09 11:28:33;;;;;;;9.35;8.50;;;;;;;;;;5053106;28;20406;-89
2021/07/09 11:30:59;;;;;;;7.00;6.30;;;;;;;;;;5052980;28;20475;-87
2021/07/09 11:33:25;;;;;;;7.20;6.13;;;;;;;;;;5071479;28;20378;-90
2021/07/09 11:35:51;;;;;;;7.95;7.15;;;;;;;;;;5071764;28;20370;-89
2021/07/09 11:38:17;;;;;;;9.48;8.60;;;;;;;;;;5053644;28;20386;-88
2021/07/09 11:40:43;;;;;;;7.68;6.85;;;;;;;;;;5070944;28;20426;-87
2021/07/09 11:43:09;;;;;;;8.17;7.30;;;;;;;;;;5053016;28;20377;-86
2021/07/09 11:45:35;;;;;;;9.05;8.13;;;;;;;;;;5053182;28;20382;-90
2021/07/09 11:48:02;;;;;;;8.73;7.88;;;;;;;;;;5070593;28;20401;-87
2021/07/09 11:50:28;;;;;;;7.97;7.18;;;;;;;;;;5053685;28;20381;-89
2021/07/09 11:52:55;;;;;;;7.78;7.03;;;;;;;;;;5053287;28;20371;-90
2021/07/09 11:55:28;;;;;;;8.00;7.30;;;;;;;;;;5052379;28;20436;-86
2021/07/09 11:57:54;;;;;;;9.27;8.00;;;;;;;;;;5071682;28;20763;-83
2021/07/09 12:00:22;;;;;;;8.25;7.45;;;;;;;;;;5054253;28;20386;-86
2021/07/09 12:02:48;;;;;;;9.38;8.68;;;;;;;;;;5053692;28;20464;-85
2021/07/09 12:05:17;;;;;;;8.05;7.32;;;;;;;;;;5054989;28;20378;-87
2021/07/09 12:07:47;;;;;;;7.22;6.63;;;;;;;;;;5052256;28;20400;-85
2021/07/09 12:10:19;;;;;;;8.00;7.25;;;;;;;;;;5069976;28;20437;-86
2021/07/09 12:12:45;;;;;;;7.43;6.72;;;;;;;;;;5052423;28;20370;-87
2021/07/09 12:15:12;;;;;;;6.50;6.00;;;;;;;;;;5052378;28;20416;-90
2021/07/09 12:17:39;;;;;;;6.73;6.17;;;;;;;;;;5052613;28;20427;-87
2021/07/09 12:20:06;;;;;;;8.23;7.45;;;;;;;;;;5052795;28;20875;-86
2021/07/09 12:22:39;;;;;;;7.22;6.53;;;;;;;;;;5070240;28;20374;-85
2021/07/09 12:25:07;;;;;;;7.15;6.60;;;;;;;;;;5052143;28;21150;-85
2021/07/09 12:27:36;;;;;;;8.05;7.40;;;;;;;;;;5070088;28;20396;-90
2021/07/09 12:30:11;;;;;;;9.10;8.40;;;;;;;;;;5051700;28;20771;-84
2021/07/09 12:32:46;;;;;;;8.90;8.00;;;;;;;;;;5070249;28;20366;-85
2021/07/09 12:35:13;;;;;;;7.80;7.10;;;;;;;;;;5052366;28;20499;-87
2021/07/09 12:37:39;;;;;;;7.32;6.70;;;;;;;;;;5070061;28;20382;-86
2021/07/09 12:40:18;;;;;;;7.35;6.75;;;;;;;;;;5051649;28;20377;-89
2021/07/09 12:42:48;;;;;;;8.50;7.68;;;;;;;;;;5051942;28;20392;-89
2021/07/09 12:45:15;;;;;;;7.07;6.57;;;;;;;;;;5052006;28;20449;-86
2021/07/09 12:47:52;;;;;;;7.13;6.45;;;;;;;;;;5051697;28;20386;-87
2021/07/09 12:50:20;;;;;;;11.27;10.23;;;;;;;;;;5051561;28;20377;-86
2021/07/09 12:52:46;;;;;;;11.52;10.32;;;;;;;;;;5051478;28;20908;-85
2021/07/09 12:55:31;;;;;;;10.15;9.38;;;;;;;;;;5051752;28;20779;-86
2021/07/09 12:58:07;;;;;;;8.30;7.60;;;;;;;;;;5051626;28;20378;-86
2021/07/09 13:00:38;;;;;;;10.43;9.70;;;;;;;;;;5051309;28;20741;-88
2021/07/09 13:03:04;;;;;;;7.72;7.13;;;;;;;;;;5051294;28;20382;-86
2021/07/09 13:05:30;;;;;;;8.68;7.95;;;;;;;;;;5051305;28;20507;-87
2021/07/09 13:08:13;;;;;;;8.43;7.73;;;;;;;;;;5051510;28;20440;-88
2021/07/09 13:10:40;;;;;;;8.82;8.13;;;;;;;;;;5069176;28;20370;-85
2021/07/09 13:13:19;;;;;;;3.78;3.42;;;;;;;;;;5051391;28;20987;-87
2021/07/09 13:16:06;;;;;;;4.15;3.67;;;;;;;;;;5051973;28;20378;-86
2021/07/09 13:18:32;;;;;;;3.30;2.73;;;;;;;;;;5051572;28;20374;-86
2021/07/09 13:20:59;;;;;;;2.60;2.40;;;;;;;;;;5051650;28;20367;-86
2021/07/09 13:23:25;;;;;;;4.43;3.47;;;;;;;;;;5069986;28;20404;-84
2021/07/09 13:26:11;;;;;;;2.72;2.13;;;;;;;;;;5051076;28;20370;-87
2021/07/09 13:28:39;;;;;;;2.38;2.17;;;;;;;;;;5068896;28;20414;-86
2021/07/09 13:31:05;;;;;;;3.83;3.20;;;;;;;;;;5051120;28;20382;-85
2021/07/09 13:33:31;;;;;;;3.75;3.30;;;;;;;;;;5051020;28;20378;-88
2021/07/09 13:35:57;;;;;;;2.85;2.60;;;;;;;;;;5069344;28;20499;-87
2021/07/09 13:38:23;;;;;;;2.75;2.55;;;;;;;;;;5051419;28;20880;-85
2021/07/09 13:40:50;;;;;;;27.80;22.80;;;;;;;;;;5051766;28;20421;-87
2021/07/09 13:43:16;;;;;;;2.53;2.23;;;;;;;;;;5051632;28;20880;-85
2021/07/09 13:45:42;;;;;;;3.15;2.42;;;;;;;;;;5051894;28;20428;-86
2021/07/09 13:48:08;;;;;;;3.60;3.13;;;;;;;;;;5070708;28;20390;-88
2021/07/09 13:50:36;;;;;;;1.77;1.50;;;;;;;;;;5068980;28;20377;-87
2021/07/09 13:53:02;;;;;;;1.60;1.50;;;;;;;;;;5069532;28;20365;-86
2021/07/09 13:55:28;;;;;;;1.93;1.60;;;;;;;;;;5051406;28;20382;-86
2021/07/09 13:57:54;;;;;;;1.88;1.60;;;;;;;;;;5069550;28;20440;-87
2021/07/09 14:00:20;;;;;;;2.10;1.90;;;;;;;;;;5051654;28;20394;-85
2021/07/09 14:02:46;;;;;;;2.50;2.30;;;;;;;;;;5051232;28;20370;-84
2021/07/09 14:05:13;;;;;;;2.20;2.00;;;;;;;;;;5051652;28;20378;-86
2021/07/09 14:07:38;;;;;;;3.40;2.60;;;;;;;;;;5068904;28;20439;-89
2021/07/09 14:10:06;;;;;;;2.60;2.00;;;;;;;;;;5069247;28;20401;-85
2021/07/09 14:12:33;;;;;;;3.67;3.38;;;;;;;;;;5051121;28;20435;-86
2021/07/09 14:15:01;;;;;;;3.15;2.95;;;;;;;;;;5051231;28;20385;-89
2021/07/09 14:17:27;;;;;;;3.83;3.53;;;;;;;;;;5051619;28;20377;-83
2021/07/09 14:19:53;;;;;;;3.15;2.40;;;;;;;;;;5051187;28;20366;-85
2021/07/09 14:22:19;;;;;;;3.53;3.13;;;;;;;;;;5051014;28;20382;-85
2021/07/09 14:24:45;;;;;;;6.22;5.70;;;;;;;;;;5068733;28;20461;-87
2021/07/09 14:27:11;;;;;;;2.67;2.47;;;;;;;;;;5051739;28;20410;-85
2021/07/09 14:29:38;;;;;;;3.93;3.63;;;;;;;;;;5054963;28;20459;-81
2021/07/09 14:32:04;;;;;;;3.50;3.20;;;;;;;;;;5054074;28;20469;-85
2021/07/09 14:34:30;;;;;;;6.15;5.55;;;;;;;;;;5053962;28;20739;-88
2021/07/09 14:36:56;;;;;;;2.83;2.53;;;;;;;;;;5054732;28;20375;-89
2021/07/09 14:39:23;;;;;;;3.92;2.20;;;;;;;;;;5054361;28;20736;-86